Aviation Digital Data Service (ADDS)

Output produced by METARs form (1654 UTC 20 January 2019)
found at http://www.aviationweather.gov/metar/data/
 
UTDD 201630Z 00000MPS 1600 1100W R09/1300U -SN BR SCT007 OVC009 00/M00 Q1025 R09/590535 NOSIG RMK QFE700/0933
TAF UTDD 201500Z 2016/2104 VRB02MPS 0800 SN FZFG BKN002 BKN010 
     TEMPO 2016/2104 28006MPS 0300 SN FZFG FU VV001
       
UTDL 201630Z 24003MPS 5000 -RA BR SCT017 OVC036 01/01 Q1023 R26/290550 NOSIG RMK QFE729/0973
TAF UTDL 201500Z 2016/2101 24005MPS 3100 -SNRA BR BKN005 OVC030 
     TEMPO 2016/2101 1500 SNRA BR BKN003 OVC020